sensor_id;sensor_type;location;lat;lon;timestamp;temperature;humidity
63537;DHT22;49686;51.880;5.632;2023-09-07T00:00:12;18.90;99.90
63537;DHT22;49686;51.880;5.632;2023-09-07T00:02:38;18.90;99.90
63537;DHT22;49686;51.880;5.632;2023-09-07T00:05:08;18.90;99.90
63537;DHT22;49686;51.880;5.632;2023-09-07T00:07:36;18.90;99.90
63537;DHT22;49686;51.880;5.632;2023-09-07T00:10:04;18.80;99.90
63537;DHT22;49686;51.880;5.632;2023-09-07T00:12:31;18.80;99.90
63537;DHT22;49686;51.880;5.632;2023-09-07T00:14:58;18.70;99.90
63537;DHT22;49686;51.880;5.632;2023-09-07T00:17:26;18.70;99.90
63537;DHT22;49686;51.880;5.632;2023-09-07T00:19:53;18.60;99.90
63537;DHT22;49686;51.880;5.632;2023-09-07T00:22:20;18.60;99.90
63537;DHT22;49686;51.880;5.632;2023-09-07T00:24:46;18.60;99.90
63537;DHT22;49686;51.880;5.632;2023-09-07T00:27:13;18.50;99.90
63537;DHT22;49686;51.880;5.632;2023-09-07T00:29:40;18.40;99.90
63537;DHT22;49686;51.880;5.632;2023-09-07T00:32:07;18.40;99.90
63537;DHT22;49686;51.880;5.632;2023-09-07T00:34:35;18.30;99.90
63537;DHT22;49686;51.880;5.632;2023-09-07T00:37:02;18.20;99.90
63537;DHT22;49686;51.880;5.632;2023-09-07T00:39:29;18.10;99.90
63537;DHT22;49686;51.880;5.632;2023-09-07T00:41:56;18.10;99.90
63537;DHT22;49686;51.880;5.632;2023-09-07T00:44:22;18.10;99.90
63537;DHT22;49686;51.880;5.632;2023-09-07T00:46:49;18.10;99.90
63537;DHT22;49686;51.880;5.632;2023-09-07T00:49:16;18.00;99.90
63537;DHT22;49686;51.880;5.632;2023-09-07T00:51:45;18.00;99.90
63537;DHT22;49686;51.880;5.632;2023-09-07T00:54:12;18.00;99.90
63537;DHT22;49686;51.880;5.632;2023-09-07T00:56:39;18.00;99.90
63537;DHT22;49686;51.880;5.632;2023-09-07T00:59:07;18.00;99.90
63537;DHT22;49686;51.880;5.632;2023-09-07T01:01:35;18.00;99.90
63537;DHT22;49686;51.880;5.632;2023-09-07T01:04:02;18.00;99.90
63537;DHT22;49686;51.880;5.632;2023-09-07T01:06:30;18.10;99.90
63537;DHT22;49686;51.880;5.632;2023-09-07T01:09:05;18.10;99.90
63537;DHT22;49686;51.880;5.632;2023-09-07T01:11:36;18.10;99.90
63537;DHT22;49686;51.880;5.632;2023-09-07T01:14:03;18.20;99.90
63537;DHT22;49686;51.880;5.632;2023-09-07T01:16:31;18.10;99.90
63537;DHT22;49686;51.880;5.632;2023-09-07T01:18:58;18.10;99.90
63537;DHT22;49686;51.880;5.632;2023-09-07T01:21:27;18.00;99.90
63537;DHT22;49686;51.880;5.632;2023-09-07T01:23:56;18.00;99.90
63537;DHT22;49686;51.880;5.632;2023-09-07T01:26:23;18.00;99.90
63537;DHT22;49686;51.880;5.632;2023-09-07T01:28:50;18.00;99.90
63537;DHT22;49686;51.880;5.632;2023-09-07T01:31:16;17.90;99.90
63537;DHT22;49686;51.880;5.632;2023-09-07T01:33:43;17.90;99.90
63537;DHT22;49686;51.880;5.632;2023-09-07T01:36:10;17.80;99.90
63537;DHT22;49686;51.880;5.632;2023-09-07T01:38:37;17.80;99.90
63537;DHT22;49686;51.880;5.632;2023-09-07T01:41:05;17.80;99.90
63537;DHT22;49686;51.880;5.632;2023-09-07T01:43:33;17.80;99.90
63537;DHT22;49686;51.880;5.632;2023-09-07T01:46:00;17.70;99.90
63537;DHT22;49686;51.880;5.632;2023-09-07T01:48:26;17.70;99.90
63537;DHT22;49686;51.880;5.632;2023-09-07T01:50:54;17.70;99.90
63537;DHT22;49686;51.880;5.632;2023-09-07T01:53:21;17.70;99.90
63537;DHT22;49686;51.880;5.632;2023-09-07T01:55:48;17.60;99.90
63537;DHT22;49686;51.880;5.632;2023-09-07T01:58:16;17.60;99.90
63537;DHT22;49686;51.880;5.632;2023-09-07T02:00:43;17.60;99.90
63537;DHT22;49686;51.880;5.632;2023-09-07T02:03:09;17.60;99.90
63537;DHT22;49686;51.880;5.632;2023-09-07T02:05:36;17.70;99.90
63537;DHT22;49686;51.880;5.632;2023-09-07T02:08:04;17.70;99.90
63537;DHT22;49686;51.880;5.632;2023-09-07T02:10:31;17.70;99.90
63537;DHT22;49686;51.880;5.632;2023-09-07T02:12:58;17.70;99.90
63537;DHT22;49686;51.880;5.632;2023-09-07T02:15:26;17.70;99.90
63537;DHT22;49686;51.880;5.632;2023-09-07T02:17:53;17.70;99.90
63537;DHT22;49686;51.880;5.632;2023-09-07T02:20:20;17.70;99.90
63537;DHT22;49686;51.880;5.632;2023-09-07T02:22:47;17.70;99.90
63537;DHT22;49686;51.880;5.632;2023-09-07T02:25:13;17.60;99.90
63537;DHT22;49686;51.880;5.632;2023-09-07T02:27:40;17.60;99.90
63537;DHT22;49686;51.880;5.632;2023-09-07T02:30:08;17.50;99.90
63537;DHT22;49686;51.880;5.632;2023-09-07T02:32:36;17.40;99.90
63537;DHT22;49686;51.880;5.632;2023-09-07T02:35:04;17.30;99.90
63537;DHT22;49686;51.880;5.632;2023-09-07T02:37:30;17.30;99.90
63537;DHT22;49686;51.880;5.632;2023-09-07T02:39:58;17.20;99.90
63537;DHT22;49686;51.880;5.632;2023-09-07T02:42:25;17.20;99.90
63537;DHT22;49686;51.880;5.632;2023-09-07T02:44:52;17.20;99.90
63537;DHT22;49686;51.880;5.632;2023-09-07T02:47:18;17.20;99.90
63537;DHT22;49686;51.880;5.632;2023-09-07T02:49:46;17.20;99.90
63537;DHT22;49686;51.880;5.632;2023-09-07T02:52:13;17.20;99.90
63537;DHT22;49686;51.880;5.632;2023-09-07T02:54:41;17.20;99.90
63537;DHT22;49686;51.880;5.632;2023-09-07T02:57:08;17.20;99.90
63537;DHT22;49686;51.880;5.632;2023-09-07T02:59:35;17.20;99.90
63537;DHT22;49686;51.880;5.632;2023-09-07T03:02:01;17.20;99.90
63537;DHT22;49686;51.880;5.632;2023-09-07T03:04:28;17.20;99.90
63537;DHT22;49686;51.880;5.632;2023-09-07T03:06:56;17.20;99.90
63537;DHT22;49686;51.880;5.632;2023-09-07T03:09:23;17.30;99.90
63537;DHT22;49686;51.880;5.632;2023-09-07T03:11:50;17.20;99.90
63537;DHT22;49686;51.880;5.632;2023-09-07T03:14:17;17.20;99.90
63537;DHT22;49686;51.880;5.632;2023-09-07T03:16:43;17.20;99.90
63537;DHT22;49686;51.880;5.632;2023-09-07T03:19:10;17.20;99.90
63537;DHT22;49686;51.880;5.632;2023-09-07T03:21:37;17.20;99.90
63537;DHT22;49686;51.880;5.632;2023-09-07T03:24:06;17.20;99.90
63537;DHT22;49686;51.880;5.632;2023-09-07T03:26:32;17.20;99.90
63537;DHT22;49686;51.880;5.632;2023-09-07T03:28:59;17.10;99.90
63537;DHT22;49686;51.880;5.632;2023-09-07T03:31:26;17.20;99.90
63537;DHT22;49686;51.880;5.632;2023-09-07T03:33:53;17.20;99.90
63537;DHT22;49686;51.880;5.632;2023-09-07T03:36:20;17.20;99.90
63537;DHT22;49686;51.880;5.632;2023-09-07T03:38:46;17.20;99.90
63537;DHT22;49686;51.880;5.632;2023-09-07T03:41:15;17.20;99.90
63537;DHT22;49686;51.880;5.632;2023-09-07T03:43:42;17.10;99.90
63537;DHT22;49686;51.880;5.632;2023-09-07T03:46:08;17.20;99.90
63537;DHT22;49686;51.880;5.632;2023-09-07T03:48:35;17.10;99.90
63537;DHT22;49686;51.880;5.632;2023-09-07T03:51:06;17.10;99.90
63537;DHT22;49686;51.880;5.632;2023-09-07T03:53:33;17.20;99.90
63537;DHT22;49686;51.880;5.632;2023-09-07T03:56:02;17.10;99.90
63537;DHT22;49686;51.880;5.632;2023-09-07T03:58:30;17.10;99.90
63537;DHT22;49686;51.880;5.632;2023-09-07T04:00:59;17.10;99.90
63537;DHT22;49686;51.880;5.632;2023-09-07T04:03:26;17.00;99.90
63537;DHT22;49686;51.880;5.632;2023-09-07T04:05:53;16.90;99.90
63537;DHT22;49686;51.880;5.632;2023-09-07T04:08:20;16.80;99.90
63537;DHT22;49686;51.880;5.632;2023-09-07T04:10:47;16.80;99.90
63537;DHT22;49686;51.880;5.632;2023-09-07T04:13:13;16.80;99.90
63537;DHT22;49686;51.880;5.632;2023-09-07T04:15:45;16.80;99.90
63537;DHT22;49686;51.880;5.632;2023-09-07T04:18:12;16.80;99.90
63537;DHT22;49686;51.880;5.632;2023-09-07T04:20:39;16.80;99.90
63537;DHT22;49686;51.880;5.632;2023-09-07T04:23:06;16.80;99.90
63537;DHT22;49686;51.880;5.632;2023-09-07T04:25:33;16.80;99.90
63537;DHT22;49686;51.880;5.632;2023-09-07T04:28:00;16.80;99.90
63537;DHT22;49686;51.880;5.632;2023-09-07T04:30:27;16.70;99.90
63537;DHT22;49686;51.880;5.632;2023-09-07T04:32:55;16.80;99.90
63537;DHT22;49686;51.880;5.632;2023-09-07T04:35:27;16.80;99.90
63537;DHT22;49686;51.880;5.632;2023-09-07T04:37:54;16.80;99.90
63537;DHT22;49686;51.880;5.632;2023-09-07T04:40:22;16.80;99.90
63537;DHT22;49686;51.880;5.632;2023-09-07T04:42:48;16.90;99.90
63537;DHT22;49686;51.880;5.632;2023-09-07T04:45:15;16.80;99.90
63537;DHT22;49686;51.880;5.632;2023-09-07T04:47:42;16.90;99.90
63537;DHT22;49686;51.880;5.632;2023-09-07T04:50:11;16.90;99.90
63537;DHT22;49686;51.880;5.632;2023-09-07T04:52:37;16.80;99.90
63537;DHT22;49686;51.880;5.632;2023-09-07T04:55:05;16.80;99.90
63537;DHT22;49686;51.880;5.632;2023-09-07T04:57:32;16.80;99.90
63537;DHT22;49686;51.880;5.632;2023-09-07T04:59:59;16.70;99.90
63537;DHT22;49686;51.880;5.632;2023-09-07T05:02:26;16.80;99.90
63537;DHT22;49686;51.880;5.632;2023-09-07T05:04:52;16.80;99.90
63537;DHT22;49686;51.880;5.632;2023-09-07T05:07:21;16.80;99.90
63537;DHT22;49686;51.880;5.632;2023-09-07T05:09:47;16.80;99.90
63537;DHT22;49686;51.880;5.632;2023-09-07T05:12:14;16.80;99.90
63537;DHT22;49686;51.880;5.632;2023-09-07T05:16:23;16.90;99.90
63537;DHT22;49686;51.880;5.632;2023-09-07T05:18:50;16.80;99.90
63537;DHT22;49686;51.880;5.632;2023-09-07T05:21:17;16.80;99.90
63537;DHT22;49686;51.880;5.632;2023-09-07T05:23:44;16.80;99.90
63537;DHT22;49686;51.880;5.632;2023-09-07T05:26:11;16.80;99.90
63537;DHT22;49686;51.880;5.632;2023-09-07T05:28:40;16.80;99.90
63537;DHT22;49686;51.880;5.632;2023-09-07T05:31:07;16.80;99.90
63537;DHT22;49686;51.880;5.632;2023-09-07T05:33:35;16.70;99.90
63537;DHT22;49686;51.880;5.632;2023-09-07T05:36:02;16.80;99.90
63537;DHT22;49686;51.880;5.632;2023-09-07T05:38:36;16.80;99.90
63537;DHT22;49686;51.880;5.632;2023-09-07T05:41:04;16.80;99.90
63537;DHT22;49686;51.880;5.632;2023-09-07T05:43:30;16.90;99.90
63537;DHT22;49686;51.880;5.632;2023-09-07T05:45:57;16.90;99.90
63537;DHT22;49686;51.880;5.632;2023-09-07T05:48:25;16.90;99.90
63537;DHT22;49686;51.880;5.632;2023-09-07T05:50:53;16.90;99.90
63537;DHT22;49686;51.880;5.632;2023-09-07T05:53:19;17.00;99.90
63537;DHT22;49686;51.880;5.632;2023-09-07T05:55:46;17.00;99.90
63537;DHT22;49686;51.880;5.632;2023-09-07T05:58:13;17.10;99.90
63537;DHT22;49686;51.880;5.632;2023-09-07T06:00:42;17.20;99.90
63537;DHT22;49686;51.880;5.632;2023-09-07T06:03:09;17.30;99.90
63537;DHT22;49686;51.880;5.632;2023-09-07T06:05:37;17.40;99.90
63537;DHT22;49686;51.880;5.632;2023-09-07T06:08:06;17.60;99.90
63537;DHT22;49686;51.880;5.632;2023-09-07T06:10:33;17.70;99.90
63537;DHT22;49686;51.880;5.632;2023-09-07T06:13:00;17.80;99.90
63537;DHT22;49686;51.880;5.632;2023-09-07T06:15:29;18.00;99.90
63537;DHT22;49686;51.880;5.632;2023-09-07T06:17:56;18.10;99.90
63537;DHT22;49686;51.880;5.632;2023-09-07T06:20:23;18.20;99.90
63537;DHT22;49686;51.880;5.632;2023-09-07T06:22:50;18.30;99.90
63537;DHT22;49686;51.880;5.632;2023-09-07T06:25:19;18.40;99.90
63537;DHT22;49686;51.880;5.632;2023-09-07T06:27:47;18.60;99.90
63537;DHT22;49686;51.880;5.632;2023-09-07T06:30:14;18.80;99.90
63537;DHT22;49686;51.880;5.632;2023-09-07T06:32:41;18.80;99.90
63537;DHT22;49686;51.880;5.632;2023-09-07T06:35:08;19.30;99.90
63537;DHT22;49686;51.880;5.632;2023-09-07T06:37:35;20.20;99.90
63537;DHT22;49686;51.880;5.632;2023-09-07T06:40:02;21.20;99.90
63537;DHT22;49686;51.880;5.632;2023-09-07T06:42:30;21.90;99.90
63537;DHT22;49686;51.880;5.632;2023-09-07T06:44:59;22.70;99.90
63537;DHT22;49686;51.880;5.632;2023-09-07T06:47:26;23.20;99.90
63537;DHT22;49686;51.880;5.632;2023-09-07T06:49:56;23.30;99.90
63537;DHT22;49686;51.880;5.632;2023-09-07T06:52:23;23.40;99.90
63537;DHT22;49686;51.880;5.632;2023-09-07T06:54:51;23.20;99.90
63537;DHT22;49686;51.880;5.632;2023-09-07T06:57:18;23.00;99.90
63537;DHT22;49686;51.880;5.632;2023-09-07T06:59:46;23.20;99.90
63537;DHT22;49686;51.880;5.632;2023-09-07T07:02:13;23.60;99.90
63537;DHT22;49686;51.880;5.632;2023-09-07T07:04:40;24.00;99.90
63537;DHT22;49686;51.880;5.632;2023-09-07T07:07:06;24.40;99.90
63537;DHT22;49686;51.880;5.632;2023-09-07T07:09:33;24.80;99.90
63537;DHT22;49686;51.880;5.632;2023-09-07T07:12:00;25.00;99.90
63537;DHT22;49686;51.880;5.632;2023-09-07T07:14:27;25.50;99.90
63537;DHT22;49686;51.880;5.632;2023-09-07T07:16:56;25.70;99.90
63537;DHT22;49686;51.880;5.632;2023-09-07T07:19:23;26.10;99.90
63537;DHT22;49686;51.880;5.632;2023-09-07T07:21:50;26.10;99.90
63537;DHT22;49686;51.880;5.632;2023-09-07T07:24:17;26.10;99.90
63537;DHT22;49686;51.880;5.632;2023-09-07T07:26:44;26.10;99.90
63537;DHT22;49686;51.880;5.632;2023-09-07T07:29:10;26.00;99.90
63537;DHT22;49686;51.880;5.632;2023-09-07T07:31:38;26.20;99.90
63537;DHT22;49686;51.880;5.632;2023-09-07T07:34:06;26.00;99.90
63537;DHT22;49686;51.880;5.632;2023-09-07T07:36:33;25.80;99.90
63537;DHT22;49686;51.880;5.632;2023-09-07T07:38:59;25.40;99.90
63537;DHT22;49686;51.880;5.632;2023-09-07T07:41:26;25.30;99.90
63537;DHT22;49686;51.880;5.632;2023-09-07T07:43:53;25.50;99.90
63537;DHT22;49686;51.880;5.632;2023-09-07T07:46:20;25.50;99.90
63537;DHT22;49686;51.880;5.632;2023-09-07T07:48:47;25.30;99.90
63537;DHT22;49686;51.880;5.632;2023-09-07T07:51:15;24.80;99.90
63537;DHT22;49686;51.880;5.632;2023-09-07T07:53:42;24.60;99.90
63537;DHT22;49686;51.880;5.632;2023-09-07T07:56:14;24.80;99.90
63537;DHT22;49686;51.880;5.632;2023-09-07T07:58:41;25.10;99.90
63537;DHT22;49686;51.880;5.632;2023-09-07T08:01:13;25.40;99.90
63537;DHT22;49686;51.880;5.632;2023-09-07T08:03:41;25.60;99.90
63537;DHT22;49686;51.880;5.632;2023-09-07T08:06:07;25.30;99.90
63537;DHT22;49686;51.880;5.632;2023-09-07T08:08:36;25.40;99.90
63537;DHT22;49686;51.880;5.632;2023-09-07T08:11:03;25.30;99.90
63537;DHT22;49686;51.880;5.632;2023-09-07T08:13:30;25.30;99.90
63537;DHT22;49686;51.880;5.632;2023-09-07T08:15:57;24.80;99.90
63537;DHT22;49686;51.880;5.632;2023-09-07T08:18:24;24.50;99.90
63537;DHT22;49686;51.880;5.632;2023-09-07T08:20:51;24.40;99.90
63537;DHT22;49686;51.880;5.632;2023-09-07T08:23:18;24.60;99.90
63537;DHT22;49686;51.880;5.632;2023-09-07T08:25:46;24.70;99.90
63537;DHT22;49686;51.880;5.632;2023-09-07T08:28:12;24.60;99.90
63537;DHT22;49686;51.880;5.632;2023-09-07T08:30:39;24.90;99.90
63537;DHT22;49686;51.880;5.632;2023-09-07T08:33:06;25.00;99.90
63537;DHT22;49686;51.880;5.632;2023-09-07T08:35:34;24.90;99.90
63537;DHT22;49686;51.880;5.632;2023-09-07T08:38:01;25.20;99.90
63537;DHT22;49686;51.880;5.632;2023-09-07T08:40:28;25.20;99.90
63537;DHT22;49686;51.880;5.632;2023-09-07T08:42:56;25.30;99.90
63537;DHT22;49686;51.880;5.632;2023-09-07T08:45:26;25.40;99.90
63537;DHT22;49686;51.880;5.632;2023-09-07T08:47:56;25.70;99.90
63537;DHT22;49686;51.880;5.632;2023-09-07T08:50:24;26.00;99.90
63537;DHT22;49686;51.880;5.632;2023-09-07T08:52:52;26.20;99.90
63537;DHT22;49686;51.880;5.632;2023-09-07T08:55:20;26.40;99.90
63537;DHT22;49686;51.880;5.632;2023-09-07T08:57:47;26.70;99.90
63537;DHT22;49686;51.880;5.632;2023-09-07T09:00:16;26.80;99.90
63537;DHT22;49686;51.880;5.632;2023-09-07T09:02:46;26.90;99.90
63537;DHT22;49686;51.880;5.632;2023-09-07T09:05:23;27.00;99.90
63537;DHT22;49686;51.880;5.632;2023-09-07T09:08:00;27.10;98.50
63537;DHT22;49686;51.880;5.632;2023-09-07T09:10:27;27.30;97.90
63537;DHT22;49686;51.880;5.632;2023-09-07T09:12:54;27.40;97.00
63537;DHT22;49686;51.880;5.632;2023-09-07T09:15:23;27.30;96.00
63537;DHT22;49686;51.880;5.632;2023-09-07T09:17:49;27.40;95.90
63537;DHT22;49686;51.880;5.632;2023-09-07T09:20:21;27.40;95.20
63537;DHT22;49686;51.880;5.632;2023-09-07T09:22:48;27.60;94.80
63537;DHT22;49686;51.880;5.632;2023-09-07T09:25:15;27.80;95.60
63537;DHT22;49686;51.880;5.632;2023-09-07T09:27:42;28.20;95.90
63537;DHT22;49686;51.880;5.632;2023-09-07T09:30:09;28.30;94.80
63537;DHT22;49686;51.880;5.632;2023-09-07T09:32:38;28.40;93.70
63537;DHT22;49686;51.880;5.632;2023-09-07T09:35:05;28.20;93.10
63537;DHT22;49686;51.880;5.632;2023-09-07T09:37:32;28.20;92.80
63537;DHT22;49686;51.880;5.632;2023-09-07T09:40:00;28.20;92.80
63537;DHT22;49686;51.880;5.632;2023-09-07T09:42:28;28.30;92.50
63537;DHT22;49686;51.880;5.632;2023-09-07T09:44:56;28.50;92.80
63537;DHT22;49686;51.880;5.632;2023-09-07T09:47:25;28.30;92.70
63537;DHT22;49686;51.880;5.632;2023-09-07T09:49:53;28.40;92.60
63537;DHT22;49686;51.880;5.632;2023-09-07T09:52:21;28.50;92.50
63537;DHT22;49686;51.880;5.632;2023-09-07T09:54:50;28.40;92.90
63537;DHT22;49686;51.880;5.632;2023-09-07T09:57:18;28.60;92.20
63537;DHT22;49686;51.880;5.632;2023-09-07T09:59:44;28.70;91.60
63537;DHT22;49686;51.880;5.632;2023-09-07T10:02:11;28.90;92.20
63537;DHT22;49686;51.880;5.632;2023-09-07T10:04:38;29.10;91.60
63537;DHT22;49686;51.880;5.632;2023-09-07T10:07:06;29.40;91.20
63537;DHT22;49686;51.880;5.632;2023-09-07T10:09:33;29.40;90.60
63537;DHT22;49686;51.880;5.632;2023-09-07T10:12:02;29.30;90.30
63537;DHT22;49686;51.880;5.632;2023-09-07T10:14:38;29.20;90.20
63537;DHT22;49686;51.880;5.632;2023-09-07T10:17:06;29.40;90.30
63537;DHT22;49686;51.880;5.632;2023-09-07T10:19:32;29.50;90.30
63537;DHT22;49686;51.880;5.632;2023-09-07T10:21:59;29.50;89.30
63537;DHT22;49686;51.880;5.632;2023-09-07T10:24:29;29.40;89.00
63537;DHT22;49686;51.880;5.632;2023-09-07T10:26:58;29.50;89.30
63537;DHT22;49686;51.880;5.632;2023-09-07T10:29:25;29.50;88.90
63537;DHT22;49686;51.880;5.632;2023-09-07T10:31:53;29.50;89.50
63537;DHT22;49686;51.880;5.632;2023-09-07T10:34:34;29.60;88.90
63537;DHT22;49686;51.880;5.632;2023-09-07T10:37:01;30.00;88.50
63537;DHT22;49686;51.880;5.632;2023-09-07T10:39:31;30.30;86.40
63537;DHT22;49686;51.880;5.632;2023-09-07T10:41:58;30.40;87.50
63537;DHT22;49686;51.880;5.632;2023-09-07T10:44:25;30.10;84.60
63537;DHT22;49686;51.880;5.632;2023-09-07T10:46:54;30.00;85.80
63537;DHT22;49686;51.880;5.632;2023-09-07T10:49:21;30.00;85.50
63537;DHT22;49686;51.880;5.632;2023-09-07T10:51:48;30.00;85.40
63537;DHT22;49686;51.880;5.632;2023-09-07T10:54:16;30.20;85.40
63537;DHT22;49686;51.880;5.632;2023-09-07T10:56:45;30.10;85.40
63537;DHT22;49686;51.880;5.632;2023-09-07T10:59:13;30.00;85.70
63537;DHT22;49686;51.880;5.632;2023-09-07T11:01:40;30.10;86.50
63537;DHT22;49686;51.880;5.632;2023-09-07T11:04:07;30.30;84.50
63537;DHT22;49686;51.880;5.632;2023-09-07T11:06:34;30.50;84.70
63537;DHT22;49686;51.880;5.632;2023-09-07T11:09:02;30.40;84.50
63537;DHT22;49686;51.880;5.632;2023-09-07T11:11:31;30.60;83.10
63537;DHT22;49686;51.880;5.632;2023-09-07T11:13:59;30.40;83.40
63537;DHT22;49686;51.880;5.632;2023-09-07T11:16:26;30.50;84.40
63537;DHT22;49686;51.880;5.632;2023-09-07T11:18:52;30.60;83.20
63537;DHT22;49686;51.880;5.632;2023-09-07T11:21:19;30.90;83.30
63537;DHT22;49686;51.880;5.632;2023-09-07T11:23:46;30.90;82.40
63537;DHT22;49686;51.880;5.632;2023-09-07T11:26:13;30.90;82.90
63537;DHT22;49686;51.880;5.632;2023-09-07T11:28:40;31.00;82.20
63537;DHT22;49686;51.880;5.632;2023-09-07T11:31:08;31.00;82.00
63537;DHT22;49686;51.880;5.632;2023-09-07T11:33:35;31.00;82.40
63537;DHT22;49686;51.880;5.632;2023-09-07T11:36:02;30.80;82.80
63537;DHT22;49686;51.880;5.632;2023-09-07T11:38:35;30.50;83.10
63537;DHT22;49686;51.880;5.632;2023-09-07T11:41:04;30.60;83.70
63537;DHT22;49686;51.880;5.632;2023-09-07T11:43:30;30.70;82.60
63537;DHT22;49686;51.880;5.632;2023-09-07T11:45:57;30.90;81.70
63537;DHT22;49686;51.880;5.632;2023-09-07T11:48:30;31.00;81.80
63537;DHT22;49686;51.880;5.632;2023-09-07T11:50:57;31.00;81.90
63537;DHT22;49686;51.880;5.632;2023-09-07T11:53:24;30.90;82.20
63537;DHT22;49686;51.880;5.632;2023-09-07T11:55:51;30.90;82.60
63537;DHT22;49686;51.880;5.632;2023-09-07T11:58:18;30.90;81.90
63537;DHT22;49686;51.880;5.632;2023-09-07T12:00:45;31.00;82.00
63537;DHT22;49686;51.880;5.632;2023-09-07T12:03:11;31.20;82.00
63537;DHT22;49686;51.880;5.632;2023-09-07T12:05:40;31.30;82.70
63537;DHT22;49686;51.880;5.632;2023-09-07T12:08:07;31.30;81.40
63537;DHT22;49686;51.880;5.632;2023-09-07T12:10:33;31.40;81.60
63537;DHT22;49686;51.880;5.632;2023-09-07T12:13:00;31.60;82.60
63537;DHT22;49686;51.880;5.632;2023-09-07T12:15:27;31.70;82.00
63537;DHT22;49686;51.880;5.632;2023-09-07T12:17:54;31.40;81.20
63537;DHT22;49686;51.880;5.632;2023-09-07T12:20:21;31.00;82.60
63537;DHT22;49686;51.880;5.632;2023-09-07T12:22:50;31.00;83.10
63537;DHT22;49686;51.880;5.632;2023-09-07T12:25:17;31.00;83.30
63537;DHT22;49686;51.880;5.632;2023-09-07T12:27:45;31.00;82.80
63537;DHT22;49686;51.880;5.632;2023-09-07T12:30:15;31.10;83.70
63537;DHT22;49686;51.880;5.632;2023-09-07T12:32:42;31.10;82.20
63537;DHT22;49686;51.880;5.632;2023-09-07T12:35:11;30.90;81.90
63537;DHT22;49686;51.880;5.632;2023-09-07T12:37:39;30.60;83.10
63537;DHT22;49686;51.880;5.632;2023-09-07T12:40:09;30.40;82.10
63537;DHT22;49686;51.880;5.632;2023-09-07T12:42:36;30.40;84.00
63537;DHT22;49686;51.880;5.632;2023-09-07T12:45:03;30.40;83.30
63537;DHT22;49686;51.880;5.632;2023-09-07T12:47:33;30.50;83.30
63537;DHT22;49686;51.880;5.632;2023-09-07T12:50:00;30.60;82.40
63537;DHT22;49686;51.880;5.632;2023-09-07T12:52:27;30.50;81.60
63537;DHT22;49686;51.880;5.632;2023-09-07T12:54:54;30.60;82.00
63537;DHT22;49686;51.880;5.632;2023-09-07T12:57:22;30.80;82.20
63537;DHT22;49686;51.880;5.632;2023-09-07T12:59:49;30.90;82.20
63537;DHT22;49686;51.880;5.632;2023-09-07T13:02:18;30.70;81.00
63537;DHT22;49686;51.880;5.632;2023-09-07T13:04:45;30.50;82.10
63537;DHT22;49686;51.880;5.632;2023-09-07T13:07:11;30.30;82.20
63537;DHT22;49686;51.880;5.632;2023-09-07T13:09:38;30.30;83.40
63537;DHT22;49686;51.880;5.632;2023-09-07T13:12:06;30.20;83.40
63537;DHT22;49686;51.880;5.632;2023-09-07T13:14:34;30.10;82.40
63537;DHT22;49686;51.880;5.632;2023-09-07T13:17:01;30.00;83.80
63537;DHT22;49686;51.880;5.632;2023-09-07T13:19:28;30.10;84.30
63537;DHT22;49686;51.880;5.632;2023-09-07T13:21:55;30.40;83.80
63537;DHT22;49686;51.880;5.632;2023-09-07T13:24:22;30.40;82.50
63537;DHT22;49686;51.880;5.632;2023-09-07T13:26:50;30.40;82.40
63537;DHT22;49686;51.880;5.632;2023-09-07T13:29:17;30.50;80.70
63537;DHT22;49686;51.880;5.632;2023-09-07T13:31:45;30.40;81.80
63537;DHT22;49686;51.880;5.632;2023-09-07T13:34:12;30.40;82.50
63537;DHT22;49686;51.880;5.632;2023-09-07T13:36:39;30.40;82.50
63537;DHT22;49686;51.880;5.632;2023-09-07T13:39:06;30.60;82.60
63537;DHT22;49686;51.880;5.632;2023-09-07T13:41:33;30.90;82.10
63537;DHT22;49686;51.880;5.632;2023-09-07T13:44:00;31.00;82.60
63537;DHT22;49686;51.880;5.632;2023-09-07T13:46:26;31.00;81.60
63537;DHT22;49686;51.880;5.632;2023-09-07T13:48:55;30.90;82.40
63537;DHT22;49686;51.880;5.632;2023-09-07T13:51:22;30.80;82.40
63537;DHT22;49686;51.880;5.632;2023-09-07T13:53:55;30.90;82.50
63537;DHT22;49686;51.880;5.632;2023-09-07T13:56:23;31.10;82.80
63537;DHT22;49686;51.880;5.632;2023-09-07T13:58:50;31.00;83.20
63537;DHT22;49686;51.880;5.632;2023-09-07T14:01:17;31.10;83.00
63537;DHT22;49686;51.880;5.632;2023-09-07T14:03:44;31.00;83.50
63537;DHT22;49686;51.880;5.632;2023-09-07T14:06:12;30.80;83.60
63537;DHT22;49686;51.880;5.632;2023-09-07T14:08:40;30.90;84.30
63537;DHT22;49686;51.880;5.632;2023-09-07T14:11:07;30.70;82.20
63537;DHT22;49686;51.880;5.632;2023-09-07T14:13:33;30.80;82.90
63537;DHT22;49686;51.880;5.632;2023-09-07T14:16:00;30.70;83.70
63537;DHT22;49686;51.880;5.632;2023-09-07T14:18:27;30.70;83.00
63537;DHT22;49686;51.880;5.632;2023-09-07T14:20:55;30.80;84.10
63537;DHT22;49686;51.880;5.632;2023-09-07T14:23:23;31.00;82.50
63537;DHT22;49686;51.880;5.632;2023-09-07T14:25:50;30.70;83.40
63537;DHT22;49686;51.880;5.632;2023-09-07T14:28:17;30.50;83.50
63537;DHT22;49686;51.880;5.632;2023-09-07T14:30:45;30.50;84.90
63537;DHT22;49686;51.880;5.632;2023-09-07T14:33:11;30.70;84.70
63537;DHT22;49686;51.880;5.632;2023-09-07T14:35:39;31.00;85.30
63537;DHT22;49686;51.880;5.632;2023-09-07T14:38:05;31.20;85.70
63537;DHT22;49686;51.880;5.632;2023-09-07T14:40:34;31.40;84.40
63537;DHT22;49686;51.880;5.632;2023-09-07T14:43:00;31.50;83.60
63537;DHT22;49686;51.880;5.632;2023-09-07T14:45:27;31.30;83.50
63537;DHT22;49686;51.880;5.632;2023-09-07T14:47:54;31.20;83.00
63537;DHT22;49686;51.880;5.632;2023-09-07T14:50:21;31.00;84.10
63537;DHT22;49686;51.880;5.632;2023-09-07T14:52:48;30.90;84.90
63537;DHT22;49686;51.880;5.632;2023-09-07T14:55:15;31.00;84.50
63537;DHT22;49686;51.880;5.632;2023-09-07T14:57:43;30.60;83.40
63537;DHT22;49686;51.880;5.632;2023-09-07T15:00:10;30.70;84.30
63537;DHT22;49686;51.880;5.632;2023-09-07T15:02:37;30.80;84.20
63537;DHT22;49686;51.880;5.632;2023-09-07T15:05:05;30.80;84.40
63537;DHT22;49686;51.880;5.632;2023-09-07T15:07:31;30.70;84.70
63537;DHT22;49686;51.880;5.632;2023-09-07T15:09:59;30.50;84.70
63537;DHT22;49686;51.880;5.632;2023-09-07T15:12:25;30.50;85.10
63537;DHT22;49686;51.880;5.632;2023-09-07T15:14:54;30.30;85.20
63537;DHT22;49686;51.880;5.632;2023-09-07T15:17:20;30.20;85.60
63537;DHT22;49686;51.880;5.632;2023-09-07T15:19:47;30.10;85.80
63537;DHT22;49686;51.880;5.632;2023-09-07T15:22:14;30.20;85.80
63537;DHT22;49686;51.880;5.632;2023-09-07T15:24:41;30.20;85.50
63537;DHT22;49686;51.880;5.632;2023-09-07T15:27:11;30.10;84.50
63537;DHT22;49686;51.880;5.632;2023-09-07T15:29:38;30.00;85.40
63537;DHT22;49686;51.880;5.632;2023-09-07T15:32:06;29.90;86.10